createdAt,value
2019-01-04T00:01:43.521Z,-0.74
2019-01-04T00:04:18.119Z,-0.83
2019-01-04T00:06:47.147Z,-0.86
2019-01-04T00:09:16.134Z,-0.89
2019-01-04T00:11:45.086Z,-0.96
2019-01-04T00:14:14.248Z,-0.85
2019-01-04T00:16:43.270Z,-0.85
2019-01-04T00:19:12.238Z,-0.88
2019-01-04T00:21:41.071Z,-0.80
2019-01-04T00:24:10.062Z,-0.74
2019-01-04T00:26:39.050Z,-0.71
2019-01-04T00:29:07.994Z,-0.68
2019-01-04T00:31:36.903Z,-0.72
2019-01-04T00:34:05.822Z,-0.67
2019-01-04T00:36:34.790Z,-0.64
2019-01-04T00:39:04.382Z,-0.54
2019-01-04T00:41:33.354Z,-0.56
2019-01-04T00:44:02.341Z,-0.50
2019-01-04T00:46:31.331Z,-0.45
2019-01-04T00:49:00.352Z,-0.60
2019-01-04T00:51:29.292Z,-0.79
2019-01-04T00:53:58.187Z,-0.84
2019-01-04T00:57:11.424Z,-0.86
2019-01-04T01:00:32.602Z,-0.85
2019-01-04T01:03:27.341Z,-0.90
2019-01-04T01:06:52.505Z,-0.96
2019-01-04T01:10:20.803Z,-0.88
2019-01-04T01:13:17.245Z,-0.99
2019-01-04T01:16:19.513Z,-0.92
2019-01-04T01:19:05.897Z,-0.93
2019-01-04T01:21:54.545Z,-0.95
2019-01-04T01:25:15.729Z,-0.97
2019-01-04T01:28:09.958Z,-1.03
2019-01-04T01:31:06.184Z,-1.09
2019-01-04T01:34:14.827Z,-1.06
2019-01-04T01:37:35.776Z,-1.05
2019-01-04T01:40:57.045Z,-1.00
2019-01-04T01:44:13.085Z,-1.09
2019-01-04T01:46:50.517Z,-1.09
2019-01-04T01:50:01.725Z,-0.99
2019-01-04T01:52:37.695Z,-0.98
2019-01-04T01:55:06.744Z,-0.90
2019-01-04T01:57:35.671Z,-0.91
2019-01-04T02:00:05.074Z,-0.91
2019-01-04T02:02:33.905Z,-0.86
2019-01-04T02:05:02.817Z,-0.89
2019-01-04T02:07:31.714Z,-0.87
2019-01-04T02:10:00.570Z,-0.83
2019-01-04T02:12:29.393Z,-0.79
2019-01-04T02:14:58.319Z,-0.79
2019-01-04T02:17:27.226Z,-0.73
2019-01-04T02:19:56.149Z,-0.74
2019-01-04T02:22:25.061Z,-0.69
2019-01-04T02:24:54.101Z,-0.72
2019-01-04T02:27:23.027Z,-0.62
2019-01-04T02:29:51.966Z,-0.73
2019-01-04T02:32:20.961Z,-0.73
2019-01-04T02:34:49.855Z,-0.73
2019-01-04T02:37:18.687Z,-0.72
2019-01-04T02:39:47.536Z,-0.77
2019-01-04T02:42:16.370Z,-0.74
2019-01-04T02:44:45.264Z,-0.71
2019-01-04T02:47:14.238Z,-0.63
2019-01-04T02:49:43.068Z,-0.58
2019-01-04T02:52:11.917Z,-0.53
2019-01-04T02:54:40.876Z,-0.67
2019-01-04T02:57:09.896Z,-0.68
2019-01-04T02:59:38.821Z,-0.60
2019-01-04T03:02:09.752Z,-0.56
2019-01-04T03:04:38.664Z,-0.57
2019-01-04T03:07:07.654Z,-0.62
2019-01-04T03:09:36.618Z,-0.65
2019-01-04T03:12:05.629Z,-0.61
2019-01-04T03:14:34.483Z,-0.59
2019-01-04T03:17:03.480Z,-0.64
2019-01-04T03:19:32.424Z,-0.78
2019-01-04T03:22:01.251Z,-0.82
2019-01-04T03:24:30.124Z,-0.88
2019-01-04T03:26:59.140Z,-0.82
2019-01-04T03:29:27.967Z,-0.82
2019-01-04T03:31:56.864Z,-0.90
2019-01-04T03:34:25.710Z,-0.95
2019-01-04T03:36:54.724Z,-0.96
2019-01-04T03:39:23.578Z,-0.96
2019-01-04T03:41:52.479Z,-1.01
2019-01-04T03:44:21.402Z,-0.94
2019-01-04T03:46:50.246Z,-0.94
2019-01-04T03:49:19.207Z,-1.00
2019-01-04T03:51:48.155Z,-0.99
2019-01-04T03:54:16.985Z,-1.01
2019-01-04T03:56:46.014Z,-0.97
2019-01-04T03:59:14.875Z,-1.01
2019-01-04T04:01:43.870Z,-0.95
2019-01-04T04:04:12.700Z,-1.01
2019-01-04T04:06:41.711Z,-0.94
2019-01-04T04:09:10.690Z,-0.98
2019-01-04T04:11:39.561Z,-1.03
2019-01-04T04:14:08.502Z,-0.97
2019-01-04T04:16:37.367Z,-1.06
2019-01-04T04:19:06.264Z,-1.01
2019-01-04T04:21:35.102Z,-0.94
2019-01-04T04:24:04.018Z,-0.98
2019-01-04T04:26:32.840Z,-1.05
2019-01-04T04:29:01.691Z,-1.03
2019-01-04T04:31:30.589Z,-1.04
2019-01-04T04:33:59.485Z,-1.16
2019-01-04T04:36:28.320Z,-1.15
2019-01-04T04:38:57.428Z,-1.14
2019-01-04T04:41:26.272Z,-1.16
2019-01-04T04:43:55.112Z,-1.12
2019-01-04T04:46:23.951Z,-1.19
2019-01-04T04:48:53.254Z,-1.17
2019-01-04T04:51:22.071Z,-1.22
2019-01-04T04:53:50.930Z,-1.19
2019-01-04T04:56:19.746Z,-1.23
2019-01-04T04:58:48.574Z,-1.25
2019-01-04T05:01:17.529Z,-1.29
2019-01-04T05:03:46.420Z,-1.31
2019-01-04T05:06:15.261Z,-1.32
2019-01-04T05:08:44.091Z,-1.36
2019-01-04T05:11:12.971Z,-1.42
2019-01-04T05:13:41.873Z,-1.47
2019-01-04T05:16:10.738Z,-1.45
2019-01-04T05:18:39.615Z,-1.50
2019-01-04T05:21:08.467Z,-1.51
2019-01-04T05:23:37.318Z,-1.47
2019-01-04T05:26:06.303Z,-1.52
2019-01-04T05:28:35.177Z,-1.48
2019-01-04T05:31:04.046Z,-1.54
2019-01-04T05:33:32.872Z,-1.61
2019-01-04T05:36:01.771Z,-1.55
2019-01-04T05:38:30.756Z,-1.47
2019-01-04T05:40:59.661Z,-1.48
2019-01-04T05:43:28.622Z,-1.59
2019-01-04T05:45:57.629Z,-1.62
2019-01-04T05:48:26.981Z,-1.73
2019-01-04T05:50:55.822Z,-1.67
2019-01-04T05:53:24.700Z,-1.60
2019-01-04T05:55:53.819Z,-1.65
2019-01-04T05:58:22.737Z,-1.66
2019-01-04T06:00:51.649Z,-1.63
2019-01-04T06:03:20.707Z,-1.68
2019-01-04T06:05:49.637Z,-1.72
2019-01-04T06:08:18.538Z,-1.56
2019-01-04T06:10:47.578Z,-1.51
2019-01-04T06:13:16.501Z,-1.56
2019-01-04T06:15:45.457Z,-1.57
2019-01-04T06:18:14.426Z,-1.62
2019-01-04T06:20:43.293Z,-1.56
2019-01-04T06:23:12.223Z,-1.60
2019-01-04T06:25:41.062Z,-1.63
2019-01-04T06:28:09.889Z,-1.49
2019-01-04T06:30:38.886Z,-1.48
2019-01-04T06:33:07.813Z,-1.54
2019-01-04T06:35:36.635Z,-1.40
2019-01-04T06:38:05.543Z,-1.43
2019-01-04T06:40:34.536Z,-1.38
2019-01-04T06:43:03.394Z,-1.34
2019-01-04T06:45:32.335Z,-1.34
2019-01-04T06:48:01.203Z,-1.37
2019-01-04T06:50:30.048Z,-1.48
2019-01-04T06:52:58.985Z,-1.42
2019-01-04T06:55:48.896Z,-1.31
2019-01-04T06:58:17.828Z,-1.36
2019-01-04T07:00:46.882Z,-1.32
2019-01-04T07:03:15.785Z,-1.31
2019-01-04T07:05:44.653Z,-1.25
2019-01-04T07:08:13.588Z,-1.30
2019-01-04T07:10:42.457Z,-1.19
2019-01-04T07:13:11.411Z,-1.25
2019-01-04T07:15:40.339Z,-1.20
2019-01-04T07:18:09.352Z,-1.32
2019-01-04T07:20:38.283Z,-1.32
2019-01-04T07:23:07.269Z,-1.26
2019-01-04T07:25:37.583Z,-1.24
2019-01-04T07:28:06.497Z,-1.25
2019-01-04T07:30:35.402Z,-1.26
2019-01-04T07:33:04.398Z,-1.31
2019-01-04T07:35:33.324Z,-1.31
2019-01-04T07:38:02.257Z,-1.32
2019-01-04T07:40:31.087Z,-1.27
2019-01-04T07:42:59.918Z,-1.39
2019-01-04T07:45:28.926Z,-1.29
2019-01-04T07:47:57.882Z,-1.28
2019-01-04T07:50:26.784Z,-1.25
2019-01-04T07:52:55.704Z,-1.25
2019-01-04T07:55:24.580Z,-1.25
2019-01-04T07:57:53.526Z,-1.31
2019-01-04T08:00:22.430Z,-1.22
2019-01-04T08:02:52.902Z,-1.20
2019-01-04T08:05:23.347Z,-1.24
2019-01-04T08:07:52.748Z,-1.12
2019-01-04T08:10:21.575Z,-1.16
2019-01-04T08:12:50.473Z,-1.14
2019-01-04T08:15:19.395Z,-1.10
2019-01-04T08:17:48.386Z,-1.07
2019-01-04T08:20:17.688Z,-0.97
2019-01-04T08:22:46.609Z,-0.92
2019-01-04T08:25:15.574Z,-0.85
2019-01-04T08:27:44.594Z,-0.78
2019-01-04T08:30:18.634Z,-0.74
2019-01-04T08:32:47.542Z,-0.64
2019-01-04T08:35:16.556Z,-0.60
2019-01-04T08:37:45.554Z,-0.66
2019-01-04T08:40:15.089Z,-0.67
2019-01-04T08:42:44.092Z,-0.50
2019-01-04T08:45:16.621Z,-0.50
2019-01-04T08:47:45.957Z,-0.45
2019-01-04T08:50:15.788Z,-0.41
2019-01-04T08:52:44.898Z,-0.46
2019-01-04T08:55:17.540Z,-0.43
2019-01-04T08:57:46.584Z,-0.31
2019-01-04T09:00:15.577Z,-0.32
2019-01-04T09:02:44.524Z,-0.38
2019-01-04T09:05:13.496Z,-0.29
2019-01-04T09:07:42.432Z,-0.30
2019-01-04T09:10:11.716Z,-0.30
2019-01-04T09:12:40.729Z,-0.32
2019-01-04T09:15:10.764Z,-0.36
2019-01-04T09:17:39.747Z,-0.30
2019-01-04T09:20:10.542Z,-0.17
2019-01-04T09:22:39.803Z,-0.09
2019-01-04T09:25:10.057Z,-0.10
2019-01-04T09:27:39.025Z,-0.05
2019-01-04T09:30:10.780Z,-0.11
2019-01-04T09:32:39.646Z,-0.04
2019-01-04T09:35:08.609Z,0.00
2019-01-04T09:37:37.573Z,0.12
2019-01-04T09:40:08.632Z,0.12
2019-01-04T09:42:37.637Z,0.22
2019-01-04T09:45:07.797Z,0.33
2019-01-04T09:47:36.779Z,0.38
2019-01-04T09:50:06.583Z,0.39
2019-01-04T09:52:35.397Z,0.37
2019-01-04T09:55:04.505Z,0.37
2019-01-04T09:57:33.436Z,0.41
2019-01-04T10:00:02.348Z,0.45
2019-01-04T10:02:31.265Z,0.39
2019-01-04T10:05:00.256Z,0.37
2019-01-04T10:07:29.109Z,0.36
2019-01-04T10:09:57.977Z,0.45
2019-01-04T10:12:26.804Z,0.39
2019-01-04T10:14:55.833Z,0.34
2019-01-04T10:17:24.824Z,0.40
2019-01-04T10:19:53.752Z,0.36
2019-01-04T10:22:22.597Z,0.48
2019-01-04T10:24:51.570Z,0.56
2019-01-04T10:27:20.500Z,0.49
2019-01-04T10:29:49.367Z,0.51
2019-01-04T10:32:18.329Z,0.58
2019-01-04T10:34:47.235Z,0.58
2019-01-04T10:37:16.097Z,0.52
2019-01-04T10:39:45.047Z,0.49
2019-01-04T10:42:13.840Z,0.41
2019-01-04T10:44:42.846Z,0.42
2019-01-04T10:47:11.790Z,0.49
2019-01-04T10:49:40.763Z,0.53
2019-01-04T10:52:09.636Z,0.55
2019-01-04T10:54:38.603Z,0.64
2019-01-04T10:57:07.489Z,0.62
2019-01-04T10:59:36.464Z,0.65
2019-01-04T11:02:05.514Z,0.61
2019-01-04T11:04:34.444Z,0.57
2019-01-04T11:07:03.288Z,0.60
2019-01-04T11:09:32.279Z,0.59
2019-01-04T11:12:01.180Z,0.55
2019-01-04T11:14:30.079Z,0.55
2019-01-04T11:16:58.978Z,0.50
2019-01-04T11:19:27.805Z,0.43
2019-01-04T11:22:46.961Z,0.54
2019-01-04T11:26:03.054Z,0.66
2019-01-04T11:29:11.663Z,0.70
2019-01-04T11:32:03.105Z,0.73
2019-01-04T11:35:04.440Z,0.73
2019-01-04T11:38:11.538Z,0.71
2019-01-04T11:41:14.720Z,0.58
2019-01-04T11:44:21.582Z,0.54
2019-01-04T11:47:22.959Z,0.58
2019-01-04T11:50:05.219Z,0.61
2019-01-04T11:52:39.346Z,0.62
2019-01-04T11:55:08.169Z,0.76
2019-01-04T11:57:37.015Z,0.87
2019-01-04T12:00:08.792Z,0.92
2019-01-04T12:02:37.810Z,0.94
2019-01-04T12:05:07.955Z,0.90
2019-01-04T12:07:36.762Z,0.89
2019-01-04T12:10:05.978Z,0.85
2019-01-04T12:12:34.806Z,0.83
2019-01-04T12:15:03.885Z,0.76
2019-01-04T12:17:32.713Z,0.71
2019-01-04T12:20:01.571Z,0.64
2019-01-04T12:22:30.456Z,0.67
2019-01-04T12:24:59.364Z,0.62
2019-01-04T12:27:28.273Z,0.65
2019-01-04T12:29:57.121Z,0.66
2019-01-04T12:32:26.014Z,0.70
2019-01-04T12:34:54.874Z,0.73
2019-01-04T12:37:23.873Z,0.75
2019-01-04T12:39:52.779Z,0.71
2019-01-04T12:42:21.616Z,0.74
2019-01-04T12:44:50.536Z,0.85
2019-01-04T12:47:19.365Z,0.91
2019-01-04T12:49:48.410Z,1.07
2019-01-04T12:52:17.332Z,1.05
2019-01-04T12:54:46.258Z,1.19
2019-01-04T12:57:15.191Z,1.15
2019-01-04T12:59:44.508Z,1.14
2019-01-04T13:02:13.424Z,1.11
2019-01-04T13:04:42.367Z,0.96
2019-01-04T13:07:11.400Z,0.83
2019-01-04T13:09:40.321Z,0.92
2019-01-04T13:12:09.263Z,0.93
2019-01-04T13:14:38.197Z,0.94
2019-01-04T13:17:07.228Z,0.94
2019-01-04T13:19:36.118Z,1.02
2019-01-04T13:22:05.119Z,0.97
2019-01-04T13:24:33.938Z,1.03
2019-01-04T13:27:02.800Z,0.99
2019-01-04T13:29:31.859Z,0.99
2019-01-04T13:32:00.773Z,0.97
2019-01-04T13:34:29.595Z,0.84
2019-01-04T13:36:58.503Z,0.75
2019-01-04T13:39:27.506Z,0.71
2019-01-04T13:41:56.429Z,0.65
2019-01-04T13:44:25.429Z,0.62
2019-01-04T13:46:54.334Z,0.62
2019-01-04T13:49:23.162Z,0.58
2019-01-04T13:51:52.031Z,0.60
2019-01-04T13:54:20.920Z,0.59
2019-01-04T13:56:49.758Z,0.58
2019-01-04T13:59:18.678Z,0.54
2019-01-04T14:01:47.503Z,0.52
2019-01-04T14:04:16.505Z,0.50
2019-01-04T14:06:45.474Z,0.44
2019-01-04T14:09:14.403Z,0.49
2019-01-04T14:11:43.249Z,0.50
2019-01-04T14:14:12.185Z,0.46
2019-01-04T14:16:41.060Z,0.49
2019-01-04T14:19:10.030Z,0.47
2019-01-04T14:21:38.952Z,0.44
2019-01-04T14:24:07.784Z,0.41
2019-01-04T14:26:36.614Z,0.42
2019-01-04T14:29:05.599Z,0.40
2019-01-04T14:31:34.454Z,0.44
2019-01-04T14:34:03.446Z,0.36
2019-01-04T14:36:32.368Z,0.43
2019-01-04T14:39:01.294Z,0.48
2019-01-04T14:41:30.105Z,0.51
2019-01-04T14:43:59.010Z,0.48
2019-01-04T14:46:27.911Z,0.41
2019-01-04T14:48:56.765Z,0.40
2019-01-04T14:51:25.662Z,0.38
2019-01-04T14:53:54.492Z,0.41
2019-01-04T14:56:23.386Z,0.36
2019-01-04T14:58:52.226Z,0.35
2019-01-04T15:01:21.036Z,0.34
2019-01-04T15:03:49.965Z,0.38
2019-01-04T15:06:18.852Z,0.46
2019-01-04T15:08:47.723Z,0.42
2019-01-04T15:11:16.629Z,0.47
2019-01-04T15:13:45.566Z,0.47
2019-01-04T15:16:14.379Z,0.44
2019-01-04T15:18:43.198Z,0.38
2019-01-04T15:21:12.114Z,0.35
2019-01-04T15:23:40.985Z,0.39
2019-01-04T15:26:09.977Z,0.39
2019-01-04T15:28:38.821Z,0.39
2019-01-04T15:31:07.718Z,0.40
2019-01-04T15:33:36.581Z,0.35
2019-01-04T15:36:05.567Z,0.33
2019-01-04T15:38:36.281Z,0.32
2019-01-04T15:41:05.364Z,0.29
2019-01-04T15:43:34.198Z,0.29
2019-01-04T15:46:03.265Z,0.29
2019-01-04T15:48:32.072Z,0.24
2019-01-04T15:51:01.052Z,0.23
2019-01-04T15:53:29.897Z,0.20
2019-01-04T15:55:58.848Z,0.23
2019-01-04T15:58:27.693Z,0.22
2019-01-04T16:00:56.557Z,0.21
2019-01-04T16:03:25.460Z,0.19
2019-01-04T16:05:54.325Z,0.14
2019-01-04T16:08:23.320Z,0.22
2019-01-04T16:10:52.189Z,0.19
2019-01-04T16:13:21.084Z,0.22
2019-01-04T16:15:49.937Z,0.22
2019-01-04T16:18:18.824Z,0.21
2019-01-04T16:20:47.793Z,0.22
2019-01-04T16:23:16.620Z,0.14
2019-01-04T16:25:45.485Z,0.20
2019-01-04T16:28:14.321Z,0.21
2019-01-04T16:30:43.187Z,0.24
2019-01-04T16:33:12.799Z,0.27
2019-01-04T16:35:41.701Z,0.26
2019-01-04T16:38:10.616Z,0.25
2019-01-04T16:40:39.465Z,0.22
2019-01-04T16:43:08.779Z,0.14
2019-01-04T16:45:37.691Z,0.17
2019-01-04T16:48:06.613Z,0.21
2019-01-04T16:50:35.594Z,0.23
2019-01-04T16:53:04.597Z,0.30
2019-01-04T16:55:33.533Z,0.28
2019-01-04T16:58:02.493Z,0.25
2019-01-04T17:00:31.403Z,0.23
2019-01-04T17:03:00.485Z,0.29
2019-01-04T17:05:29.464Z,0.25
2019-01-04T17:07:58.425Z,0.22
2019-01-04T17:10:27.417Z,0.22
2019-01-04T17:12:56.262Z,0.24
2019-01-04T17:15:25.144Z,0.26
2019-01-04T17:17:54.074Z,0.27
2019-01-04T17:20:22.897Z,0.22
2019-01-04T17:22:51.753Z,0.22
2019-01-04T17:25:20.667Z,0.18
2019-01-04T17:27:49.603Z,0.22
2019-01-04T17:30:18.534Z,0.20
2019-01-04T17:32:47.384Z,0.23
2019-01-04T17:35:16.288Z,0.28
2019-01-04T17:37:45.110Z,0.32
2019-01-04T17:40:14.090Z,0.35
2019-01-04T17:42:43.090Z,0.38
2019-01-04T17:45:11.998Z,0.37
2019-01-04T17:47:40.998Z,0.38
2019-01-04T17:50:10.028Z,0.36
2019-01-04T17:52:38.869Z,0.42
2019-01-04T17:55:07.864Z,0.44
2019-01-04T17:57:36.923Z,0.38
2019-01-04T18:00:06.857Z,0.39
2019-01-04T18:02:35.720Z,0.35
2019-01-04T18:05:04.798Z,0.35
2019-01-04T18:07:33.670Z,0.40
2019-01-04T18:10:02.572Z,0.31
2019-01-04T18:12:31.405Z,0.37
2019-01-04T18:15:00.355Z,0.39
2019-01-04T18:17:29.256Z,0.37
2019-01-04T18:19:58.179Z,0.37
2019-01-04T18:22:27.310Z,0.40
2019-01-04T18:24:56.328Z,0.39
2019-01-04T18:27:25.144Z,0.35
2019-01-04T18:29:54.012Z,0.32
2019-01-04T18:32:22.908Z,0.37
2019-01-04T18:34:51.821Z,0.37
2019-01-04T18:37:20.713Z,0.41
2019-01-04T18:39:49.608Z,0.38
2019-01-04T18:42:18.494Z,0.42
2019-01-04T18:44:47.333Z,0.36
2019-01-04T18:47:16.157Z,0.38
2019-01-04T18:49:45.001Z,0.34
2019-01-04T18:52:13.962Z,0.39
2019-01-04T18:54:42.890Z,0.36
2019-01-04T18:57:11.724Z,0.38
2019-01-04T18:59:40.545Z,0.43
2019-01-04T19:02:09.375Z,0.41
2019-01-04T19:04:39.098Z,0.45
2019-01-04T19:07:08.010Z,0.48
2019-01-04T19:09:36.858Z,0.47
2019-01-04T19:12:05.870Z,0.47
2019-01-04T19:14:34.936Z,0.51
2019-01-04T19:17:03.830Z,0.52
2019-01-04T19:19:32.690Z,0.45
2019-01-04T19:22:01.488Z,0.47
2019-01-04T19:24:30.415Z,0.47
2019-01-04T19:26:59.306Z,0.48
2019-01-04T19:29:28.220Z,0.52
2019-01-04T19:31:57.117Z,0.50
2019-01-04T19:34:26.173Z,0.49
2019-01-04T19:36:55.121Z,0.51
2019-01-04T19:39:24.012Z,0.55
2019-01-04T19:41:52.829Z,0.47
2019-01-04T19:44:21.718Z,0.52
2019-01-04T19:46:50.655Z,0.54
2019-01-04T19:49:19.573Z,0.52
2019-01-04T19:51:48.433Z,0.53
2019-01-04T19:54:17.262Z,0.52
2019-01-04T19:56:46.309Z,0.50
2019-01-04T19:59:15.157Z,0.52
2019-01-04T20:01:44.106Z,0.48
2019-01-04T20:04:12.954Z,0.55
2019-01-04T20:07:25.365Z,0.51
2019-01-04T20:10:48.279Z,0.46
2019-01-04T20:14:19.704Z,0.50
2019-01-04T20:17:23.278Z,0.46
2019-01-04T20:20:21.945Z,0.55
2019-01-04T20:23:22.023Z,0.48
2019-01-04T20:26:11.539Z,0.50
2019-01-04T20:29:17.233Z,0.50
2019-01-04T20:32:19.852Z,0.53
2019-01-04T20:35:06.187Z,0.47
2019-01-04T20:37:59.683Z,0.48
2019-01-04T20:40:47.769Z,0.50
2019-01-04T20:43:38.386Z,0.47
2019-01-04T20:46:21.995Z,0.46
2019-01-04T20:49:15.626Z,0.56
2019-01-04T20:52:11.756Z,0.56
2019-01-04T20:55:12.355Z,0.51
2019-01-04T20:57:57.390Z,0.49
2019-01-04T21:00:44.065Z,0.55
2019-01-04T21:03:43.830Z,0.55
2019-01-04T21:06:34.288Z,0.52
2019-01-04T21:09:20.706Z,0.57
2019-01-04T21:12:06.984Z,0.55
2019-01-04T21:15:09.716Z,0.55
2019-01-04T21:18:06.619Z,0.58
2019-01-04T21:21:00.619Z,0.56
2019-01-04T21:23:45.765Z,0.52
2019-01-04T21:26:45.343Z,0.51
2019-01-04T21:29:48.068Z,0.56
2019-01-04T21:32:34.450Z,0.58
2019-01-04T21:35:22.399Z,0.55
2019-01-04T21:38:08.588Z,0.56
2019-01-04T21:40:55.951Z,0.56
2019-01-04T21:43:42.261Z,0.56
2019-01-04T21:46:43.220Z,0.57
2019-01-04T21:49:33.663Z,0.56
2019-01-04T21:52:27.142Z,0.55
2019-01-04T21:55:14.989Z,0.54
2019-01-04T21:58:08.432Z,0.54
2019-01-04T22:01:06.186Z,0.56
2019-01-04T22:03:52.722Z,0.56
2019-01-04T22:06:40.673Z,0.54
2019-01-04T22:09:22.249Z,0.59
2019-01-04T22:12:11.039Z,0.56
2019-01-04T22:14:57.518Z,0.58
2019-01-04T22:17:52.007Z,0.57
2019-01-04T22:20:38.199Z,0.54
2019-01-04T22:23:41.299Z,0.60
2019-01-04T22:26:34.844Z,0.60
2019-01-04T22:29:40.667Z,0.61
2019-01-04T22:32:28.569Z,0.60
2019-01-04T22:35:14.831Z,0.61
2019-01-04T22:38:17.431Z,0.62
2019-01-04T22:41:05.165Z,0.64
2019-01-04T22:44:02.203Z,0.67
2019-01-04T22:46:45.270Z,0.67
2019-01-04T22:49:27.276Z,0.72
2019-01-04T22:52:13.604Z,0.72
2019-01-04T22:55:16.384Z,0.76
2019-01-04T22:58:02.950Z,0.75
2019-01-04T23:00:50.945Z,0.76
2019-01-04T23:03:50.601Z,0.74
2019-01-04T23:06:37.356Z,0.73
2019-01-04T23:09:28.612Z,0.77
2019-01-04T23:12:14.852Z,0.76
2019-01-04T23:14:59.245Z,0.81
2019-01-04T23:17:45.681Z,0.82
2019-01-04T23:20:36.665Z,0.83
2019-01-04T23:23:22.163Z,0.74
2019-01-04T23:26:10.033Z,0.75
2019-01-04T23:28:56.371Z,0.75
2019-01-04T23:31:43.107Z,0.78
2019-01-04T23:34:46.220Z,0.75
2019-01-04T23:37:32.544Z,0.79
2019-01-04T23:40:18.864Z,0.75
2019-01-04T23:43:15.921Z,0.75
2019-01-04T23:46:02.590Z,0.75
2019-01-04T23:48:44.230Z,0.78
2019-01-04T23:51:35.073Z,0.85
2019-01-04T23:54:15.167Z,0.81
2019-01-04T23:57:01.497Z,0.80
